sensor_id;sensor_type;location;lat;lon;timestamp;P1;durP1;ratioP1;P2;durP2;ratioP2
19341;SDS011;9807;48.258;12.690;2023-10-09T00:01:25;7.03;;;4.23;;
19341;SDS011;9807;48.258;12.690;2023-10-09T00:03:51;8.47;;;4.47;;
19341;SDS011;9807;48.258;12.690;2023-10-09T00:06:21;8.00;;;3.83;;
19341;SDS011;9807;48.258;12.690;2023-10-09T00:09:01;9.57;;;5.10;;
19341;SDS011;9807;48.258;12.690;2023-10-09T00:11:42;8.43;;;4.40;;
19341;SDS011;9807;48.258;12.690;2023-10-09T00:14:12;10.50;;;4.70;;
19341;SDS011;9807;48.258;12.690;2023-10-09T00:16:43;7.50;;;4.03;;
19341;SDS011;9807;48.258;12.690;2023-10-09T00:19:14;8.33;;;4.27;;
19341;SDS011;9807;48.258;12.690;2023-10-09T00:21:45;9.30;;;5.03;;
19341;SDS011;9807;48.258;12.690;2023-10-09T00:24:15;11.63;;;4.83;;
19341;SDS011;9807;48.258;12.690;2023-10-09T00:26:48;7.83;;;4.10;;
19341;SDS011;9807;48.258;12.690;2023-10-09T00:29:15;7.47;;;3.87;;
19341;SDS011;9807;48.258;12.690;2023-10-09T00:31:52;7.47;;;3.80;;
19341;SDS011;9807;48.258;12.690;2023-10-09T00:34:37;9.50;;;5.23;;
19341;SDS011;9807;48.258;12.690;2023-10-09T00:37:10;12.43;;;6.00;;
19341;SDS011;9807;48.258;12.690;2023-10-09T00:39:41;11.53;;;5.47;;
19341;SDS011;9807;48.258;12.690;2023-10-09T00:42:09;9.60;;;4.40;;
19341;SDS011;9807;48.258;12.690;2023-10-09T00:44:40;6.60;;;4.20;;
19341;SDS011;9807;48.258;12.690;2023-10-09T00:47:10;7.50;;;3.73;;
19341;SDS011;9807;48.258;12.690;2023-10-09T00:49:57;6.27;;;3.80;;
19341;SDS011;9807;48.258;12.690;2023-10-09T00:52:30;4.67;;;3.43;;
19341;SDS011;9807;48.258;12.690;2023-10-09T00:55:02;5.47;;;3.60;;
19341;SDS011;9807;48.258;12.690;2023-10-09T00:57:46;9.27;;;4.27;;
19341;SDS011;9807;48.258;12.690;2023-10-09T01:00:23;6.13;;;4.00;;
19341;SDS011;9807;48.258;12.690;2023-10-09T01:03:10;6.80;;;4.20;;
19341;SDS011;9807;48.258;12.690;2023-10-09T01:08:22;5.77;;;3.80;;
19341;SDS011;9807;48.258;12.690;2023-10-09T01:13:45;8.40;;;4.20;;
19341;SDS011;9807;48.258;12.690;2023-10-09T01:16:20;5.83;;;3.40;;
19341;SDS011;9807;48.258;12.690;2023-10-09T01:18:48;8.40;;;4.00;;
19341;SDS011;9807;48.258;12.690;2023-10-09T01:21:16;7.37;;;4.20;;
19341;SDS011;9807;48.258;12.690;2023-10-09T01:23:48;6.73;;;3.83;;
19341;SDS011;9807;48.258;12.690;2023-10-09T01:26:40;6.37;;;4.03;;
19341;SDS011;9807;48.258;12.690;2023-10-09T01:29:17;6.23;;;3.60;;
19341;SDS011;9807;48.258;12.690;2023-10-09T01:31:45;7.77;;;4.60;;
19341;SDS011;9807;48.258;12.690;2023-10-09T01:34:24;5.27;;;3.70;;
19341;SDS011;9807;48.258;12.690;2023-10-09T01:37:09;7.93;;;3.90;;
19341;SDS011;9807;48.258;12.690;2023-10-09T01:39:51;6.70;;;3.57;;
19341;SDS011;9807;48.258;12.690;2023-10-09T01:42:18;6.87;;;3.90;;
19341;SDS011;9807;48.258;12.690;2023-10-09T01:45:10;7.70;;;3.80;;
19341;SDS011;9807;48.258;12.690;2023-10-09T01:47:37;6.40;;;3.47;;
19341;SDS011;9807;48.258;12.690;2023-10-09T01:50:06;5.17;;;3.50;;
19341;SDS011;9807;48.258;12.690;2023-10-09T01:52:59;6.70;;;3.80;;
19341;SDS011;9807;48.258;12.690;2023-10-09T01:55:30;5.77;;;3.90;;
19341;SDS011;9807;48.258;12.690;2023-10-09T01:58:05;6.00;;;4.10;;
19341;SDS011;9807;48.258;12.690;2023-10-09T02:00:47;7.70;;;3.87;;
19341;SDS011;9807;48.258;12.690;2023-10-09T02:03:14;6.57;;;3.70;;
19341;SDS011;9807;48.258;12.690;2023-10-09T02:05:43;5.53;;;3.70;;
19341;SDS011;9807;48.258;12.690;2023-10-09T02:08:10;5.37;;;3.47;;
19341;SDS011;9807;48.258;12.690;2023-10-09T02:10:36;6.10;;;3.70;;
19341;SDS011;9807;48.258;12.690;2023-10-09T02:13:05;5.43;;;3.50;;
19341;SDS011;9807;48.258;12.690;2023-10-09T02:15:42;6.27;;;3.80;;
19341;SDS011;9807;48.258;12.690;2023-10-09T02:20:43;7.17;;;4.03;;
19341;SDS011;9807;48.258;12.690;2023-10-09T02:23:25;7.37;;;3.97;;
19341;SDS011;9807;48.258;12.690;2023-10-09T02:26:04;9.13;;;4.17;;
19341;SDS011;9807;48.258;12.690;2023-10-09T02:28:34;8.67;;;4.47;;
19341;SDS011;9807;48.258;12.690;2023-10-09T02:31:01;9.03;;;4.17;;
19341;SDS011;9807;48.258;12.690;2023-10-09T02:33:35;7.30;;;3.87;;
19341;SDS011;9807;48.258;12.690;2023-10-09T02:36:10;5.23;;;3.80;;
19341;SDS011;9807;48.258;12.690;2023-10-09T02:38:39;6.47;;;4.00;;
19341;SDS011;9807;48.258;12.690;2023-10-09T02:41:09;6.53;;;3.77;;
19341;SDS011;9807;48.258;12.690;2023-10-09T02:43:37;8.03;;;4.07;;
19341;SDS011;9807;48.258;12.690;2023-10-09T02:46:15;10.70;;;4.53;;
19341;SDS011;9807;48.258;12.690;2023-10-09T02:48:46;9.37;;;5.03;;
19341;SDS011;9807;48.258;12.690;2023-10-09T02:51:20;12.60;;;6.50;;
19341;SDS011;9807;48.258;12.690;2023-10-09T02:53:50;11.80;;;5.90;;
19341;SDS011;9807;48.258;12.690;2023-10-09T02:56:23;9.77;;;6.10;;
19341;SDS011;9807;48.258;12.690;2023-10-09T02:58:52;11.97;;;6.67;;
19341;SDS011;9807;48.258;12.690;2023-10-09T03:01:18;11.47;;;5.77;;
19341;SDS011;9807;48.258;12.690;2023-10-09T03:03:44;7.97;;;4.53;;
19341;SDS011;9807;48.258;12.690;2023-10-09T03:06:14;6.83;;;4.00;;
19341;SDS011;9807;48.258;12.690;2023-10-09T03:08:44;7.30;;;4.53;;
19341;SDS011;9807;48.258;12.690;2023-10-09T03:11:12;7.73;;;4.63;;
19341;SDS011;9807;48.258;12.690;2023-10-09T03:13:42;8.27;;;4.10;;
19341;SDS011;9807;48.258;12.690;2023-10-09T03:16:09;6.43;;;4.57;;
19341;SDS011;9807;48.258;12.690;2023-10-09T03:18:44;8.23;;;4.63;;
19341;SDS011;9807;48.258;12.690;2023-10-09T03:21:14;6.90;;;4.40;;
19341;SDS011;9807;48.258;12.690;2023-10-09T03:23:40;7.27;;;4.40;;
19341;SDS011;9807;48.258;12.690;2023-10-09T03:26:06;6.53;;;4.37;;
19341;SDS011;9807;48.258;12.690;2023-10-09T03:28:33;6.70;;;4.17;;
19341;SDS011;9807;48.258;12.690;2023-10-09T03:30:59;9.60;;;4.30;;
19341;SDS011;9807;48.258;12.690;2023-10-09T03:33:27;7.30;;;3.97;;
19341;SDS011;9807;48.258;12.690;2023-10-09T03:35:57;11.87;;;5.10;;
19341;SDS011;9807;48.258;12.690;2023-10-09T03:38:26;16.83;;;5.90;;
19341;SDS011;9807;48.258;12.690;2023-10-09T03:41:02;9.07;;;4.53;;
19341;SDS011;9807;48.258;12.690;2023-10-09T03:43:34;7.43;;;4.30;;
19341;SDS011;9807;48.258;12.690;2023-10-09T03:46:10;5.63;;;3.77;;
19341;SDS011;9807;48.258;12.690;2023-10-09T03:48:59;11.47;;;4.70;;
19341;SDS011;9807;48.258;12.690;2023-10-09T03:51:29;6.03;;;3.73;;
19341;SDS011;9807;48.258;12.690;2023-10-09T03:53:54;9.17;;;4.47;;
19341;SDS011;9807;48.258;12.690;2023-10-09T03:56:21;7.50;;;4.07;;
19341;SDS011;9807;48.258;12.690;2023-10-09T03:58:47;6.20;;;4.10;;
19341;SDS011;9807;48.258;12.690;2023-10-09T04:03:57;5.87;;;3.70;;
19341;SDS011;9807;48.258;12.690;2023-10-09T04:06:27;9.27;;;4.57;;
19341;SDS011;9807;48.258;12.690;2023-10-09T04:09:09;15.97;;;5.50;;
19341;SDS011;9807;48.258;12.690;2023-10-09T04:11:47;11.77;;;4.40;;
19341;SDS011;9807;48.258;12.690;2023-10-09T04:14:22;7.70;;;4.50;;
19341;SDS011;9807;48.258;12.690;2023-10-09T04:16:57;12.57;;;5.07;;
19341;SDS011;9807;48.258;12.690;2023-10-09T04:19:31;7.63;;;4.50;;
19341;SDS011;9807;48.258;12.690;2023-10-09T04:22:07;11.73;;;5.10;;
19341;SDS011;9807;48.258;12.690;2023-10-09T04:24:42;12.70;;;5.80;;
19341;SDS011;9807;48.258;12.690;2023-10-09T04:27:09;10.70;;;5.73;;
19341;SDS011;9807;48.258;12.690;2023-10-09T04:29:35;12.10;;;5.10;;
19341;SDS011;9807;48.258;12.690;2023-10-09T04:32:04;7.87;;;4.67;;
19341;SDS011;9807;48.258;12.690;2023-10-09T04:34:34;20.20;;;5.90;;
19341;SDS011;9807;48.258;12.690;2023-10-09T04:37:16;12.70;;;5.53;;
19341;SDS011;9807;48.258;12.690;2023-10-09T04:40:01;9.80;;;4.73;;
19341;SDS011;9807;48.258;12.690;2023-10-09T04:42:39;6.43;;;4.00;;
19341;SDS011;9807;48.258;12.690;2023-10-09T04:45:11;8.53;;;4.77;;
19341;SDS011;9807;48.258;12.690;2023-10-09T04:47:40;5.63;;;4.03;;
19341;SDS011;9807;48.258;12.690;2023-10-09T04:50:15;6.83;;;4.20;;
19341;SDS011;9807;48.258;12.690;2023-10-09T04:52:43;7.90;;;4.40;;
19341;SDS011;9807;48.258;12.690;2023-10-09T04:55:09;8.97;;;4.43;;
19341;SDS011;9807;48.258;12.690;2023-10-09T04:57:39;11.93;;;4.63;;
19341;SDS011;9807;48.258;12.690;2023-10-09T05:03:07;6.60;;;3.63;;
19341;SDS011;9807;48.258;12.690;2023-10-09T05:05:37;9.00;;;4.20;;
19341;SDS011;9807;48.258;12.690;2023-10-09T05:08:16;9.00;;;4.80;;
19341;SDS011;9807;48.258;12.690;2023-10-09T05:10:46;10.83;;;5.13;;
19341;SDS011;9807;48.258;12.690;2023-10-09T05:13:24;12.40;;;4.70;;
19341;SDS011;9807;48.258;12.690;2023-10-09T05:16:08;6.83;;;4.30;;
19341;SDS011;9807;48.258;12.690;2023-10-09T05:18:50;8.77;;;4.97;;
19341;SDS011;9807;48.258;12.690;2023-10-09T05:21:37;11.10;;;5.37;;
19341;SDS011;9807;48.258;12.690;2023-10-09T05:24:07;8.50;;;4.80;;
19341;SDS011;9807;48.258;12.690;2023-10-09T05:26:37;10.50;;;5.50;;
19341;SDS011;9807;48.258;12.690;2023-10-09T05:29:26;13.70;;;5.40;;
19341;SDS011;9807;48.258;12.690;2023-10-09T05:31:58;17.10;;;6.60;;
19341;SDS011;9807;48.258;12.690;2023-10-09T05:34:30;9.17;;;4.57;;
19341;SDS011;9807;48.258;12.690;2023-10-09T05:37:00;8.90;;;5.33;;
19341;SDS011;9807;48.258;12.690;2023-10-09T05:39:41;14.67;;;6.90;;
19341;SDS011;9807;48.258;12.690;2023-10-09T05:42:08;17.17;;;6.50;;
19341;SDS011;9807;48.258;12.690;2023-10-09T05:44:43;16.33;;;6.47;;
19341;SDS011;9807;48.258;12.690;2023-10-09T05:47:41;17.47;;;6.67;;
19341;SDS011;9807;48.258;12.690;2023-10-09T05:50:23;22.70;;;6.43;;
19341;SDS011;9807;48.258;12.690;2023-10-09T05:52:50;11.73;;;6.50;;
19341;SDS011;9807;48.258;12.690;2023-10-09T05:55:42;10.90;;;5.63;;
19341;SDS011;9807;48.258;12.690;2023-10-09T05:58:33;11.57;;;6.10;;
19341;SDS011;9807;48.258;12.690;2023-10-09T06:01:28;15.37;;;6.07;;
19341;SDS011;9807;48.258;12.690;2023-10-09T06:04:12;10.20;;;5.77;;
19341;SDS011;9807;48.258;12.690;2023-10-09T06:06:41;9.33;;;5.40;;
19341;SDS011;9807;48.258;12.690;2023-10-09T06:09:14;10.13;;;5.43;;
19341;SDS011;9807;48.258;12.690;2023-10-09T06:11:41;11.73;;;5.83;;
19341;SDS011;9807;48.258;12.690;2023-10-09T06:14:18;15.57;;;7.07;;
19341;SDS011;9807;48.258;12.690;2023-10-09T06:17:11;11.37;;;5.80;;
19341;SDS011;9807;48.258;12.690;2023-10-09T06:19:39;12.47;;;6.67;;
19341;SDS011;9807;48.258;12.690;2023-10-09T06:22:08;20.17;;;7.53;;
19341;SDS011;9807;48.258;12.690;2023-10-09T06:24:55;12.17;;;6.40;;
19341;SDS011;9807;48.258;12.690;2023-10-09T06:27:22;11.60;;;6.20;;
19341;SDS011;9807;48.258;12.690;2023-10-09T06:29:57;21.13;;;7.13;;
19341;SDS011;9807;48.258;12.690;2023-10-09T06:32:42;17.53;;;6.53;;
19341;SDS011;9807;48.258;12.690;2023-10-09T06:35:20;10.70;;;5.80;;
19341;SDS011;9807;48.258;12.690;2023-10-09T06:37:55;11.10;;;6.03;;
19341;SDS011;9807;48.258;12.690;2023-10-09T06:43:15;25.13;;;12.10;;
19341;SDS011;9807;48.258;12.690;2023-10-09T06:45:47;19.90;;;9.50;;
19341;SDS011;9807;48.258;12.690;2023-10-09T06:48:22;17.43;;;7.67;;
19341;SDS011;9807;48.258;12.690;2023-10-09T06:51:07;19.53;;;10.50;;
19341;SDS011;9807;48.258;12.690;2023-10-09T06:53:51;17.33;;;9.13;;
19341;SDS011;9807;48.258;12.690;2023-10-09T06:56:24;16.30;;;8.70;;
19341;SDS011;9807;48.258;12.690;2023-10-09T06:58:57;19.27;;;8.30;;
19341;SDS011;9807;48.258;12.690;2023-10-09T07:01:27;19.30;;;7.77;;
19341;SDS011;9807;48.258;12.690;2023-10-09T07:03:53;14.27;;;6.93;;
19341;SDS011;9807;48.258;12.690;2023-10-09T07:06:19;12.10;;;6.07;;
19341;SDS011;9807;48.258;12.690;2023-10-09T07:08:55;19.10;;;7.33;;
19341;SDS011;9807;48.258;12.690;2023-10-09T07:11:33;17.20;;;7.83;;
19341;SDS011;9807;48.258;12.690;2023-10-09T07:14:08;23.73;;;8.40;;
19341;SDS011;9807;48.258;12.690;2023-10-09T07:16:57;26.50;;;8.13;;
19341;SDS011;9807;48.258;12.690;2023-10-09T07:19:29;22.97;;;7.97;;
19341;SDS011;9807;48.258;12.690;2023-10-09T07:22:02;33.23;;;8.03;;
19341;SDS011;9807;48.258;12.690;2023-10-09T07:24:30;28.80;;;7.67;;
19341;SDS011;9807;48.258;12.690;2023-10-09T07:27:08;25.77;;;7.73;;
19341;SDS011;9807;48.258;12.690;2023-10-09T07:29:38;24.80;;;8.73;;
19341;SDS011;9807;48.258;12.690;2023-10-09T07:32:15;35.00;;;9.20;;
19341;SDS011;9807;48.258;12.690;2023-10-09T07:34:51;22.60;;;8.07;;
19341;SDS011;9807;48.258;12.690;2023-10-09T07:37:26;24.87;;;8.37;;
19341;SDS011;9807;48.258;12.690;2023-10-09T07:40:03;25.20;;;8.20;;
19341;SDS011;9807;48.258;12.690;2023-10-09T07:42:33;24.37;;;8.83;;
19341;SDS011;9807;48.258;12.690;2023-10-09T07:45:09;28.93;;;7.40;;
19341;SDS011;9807;48.258;12.690;2023-10-09T07:47:47;22.50;;;7.80;;
19341;SDS011;9807;48.258;12.690;2023-10-09T07:50:39;34.27;;;8.57;;
19341;SDS011;9807;48.258;12.690;2023-10-09T07:53:15;27.60;;;9.17;;
19341;SDS011;9807;48.258;12.690;2023-10-09T07:55:46;34.43;;;10.13;;
19341;SDS011;9807;48.258;12.690;2023-10-09T07:58:31;21.73;;;8.00;;
19341;SDS011;9807;48.258;12.690;2023-10-09T08:00:58;32.30;;;8.53;;
19341;SDS011;9807;48.258;12.690;2023-10-09T08:03:36;27.73;;;8.93;;
19341;SDS011;9807;48.258;12.690;2023-10-09T08:06:03;30.43;;;9.13;;
19341;SDS011;9807;48.258;12.690;2023-10-09T08:08:47;31.80;;;8.27;;
19341;SDS011;9807;48.258;12.690;2023-10-09T08:11:28;26.93;;;8.73;;
19341;SDS011;9807;48.258;12.690;2023-10-09T08:14:04;32.13;;;8.70;;
19341;SDS011;9807;48.258;12.690;2023-10-09T08:16:45;30.47;;;7.43;;
19341;SDS011;9807;48.258;12.690;2023-10-09T08:19:11;32.20;;;7.73;;
19341;SDS011;9807;48.258;12.690;2023-10-09T08:21:57;28.90;;;6.63;;
19341;SDS011;9807;48.258;12.690;2023-10-09T08:24:52;23.60;;;6.27;;
19341;SDS011;9807;48.258;12.690;2023-10-09T08:27:24;22.97;;;6.63;;
19341;SDS011;9807;48.258;12.690;2023-10-09T08:29:58;28.07;;;6.70;;
19341;SDS011;9807;48.258;12.690;2023-10-09T08:32:47;36.80;;;7.27;;
19341;SDS011;9807;48.258;12.690;2023-10-09T08:35:31;24.60;;;7.17;;
19341;SDS011;9807;48.258;12.690;2023-10-09T08:38:02;28.80;;;6.83;;
19341;SDS011;9807;48.258;12.690;2023-10-09T08:40:33;26.90;;;6.33;;
19341;SDS011;9807;48.258;12.690;2023-10-09T08:43:13;28.13;;;7.00;;
19341;SDS011;9807;48.258;12.690;2023-10-09T08:45:51;23.83;;;7.17;;
19341;SDS011;9807;48.258;12.690;2023-10-09T08:48:22;26.17;;;6.47;;
19341;SDS011;9807;48.258;12.690;2023-10-09T08:50:51;22.73;;;6.10;;
19341;SDS011;9807;48.258;12.690;2023-10-09T08:53:21;23.37;;;6.57;;
19341;SDS011;9807;48.258;12.690;2023-10-09T08:55:52;24.43;;;6.20;;
19341;SDS011;9807;48.258;12.690;2023-10-09T08:58:18;23.87;;;6.30;;
19341;SDS011;9807;48.258;12.690;2023-10-09T09:00:51;30.90;;;5.90;;
19341;SDS011;9807;48.258;12.690;2023-10-09T09:03:18;21.53;;;6.20;;
19341;SDS011;9807;48.258;12.690;2023-10-09T09:06:00;15.47;;;5.10;;
19341;SDS011;9807;48.258;12.690;2023-10-09T09:08:27;22.13;;;5.53;;
19341;SDS011;9807;48.258;12.690;2023-10-09T09:11:00;28.27;;;5.87;;
19341;SDS011;9807;48.258;12.690;2023-10-09T09:14:05;35.87;;;5.23;;
19341;SDS011;9807;48.258;12.690;2023-10-09T09:16:32;31.03;;;5.20;;
19341;SDS011;9807;48.258;12.690;2023-10-09T09:19:06;26.63;;;5.27;;
19341;SDS011;9807;48.258;12.690;2023-10-09T09:21:36;25.57;;;5.40;;
19341;SDS011;9807;48.258;12.690;2023-10-09T09:24:07;26.17;;;5.23;;
19341;SDS011;9807;48.258;12.690;2023-10-09T09:26:49;25.90;;;7.73;;
19341;SDS011;9807;48.258;12.690;2023-10-09T09:29:38;29.47;;;7.87;;
19341;SDS011;9807;48.258;12.690;2023-10-09T09:32:06;30.53;;;6.80;;
19341;SDS011;9807;48.258;12.690;2023-10-09T09:34:47;35.80;;;6.70;;
19341;SDS011;9807;48.258;12.690;2023-10-09T09:37:20;21.67;;;6.00;;
19341;SDS011;9807;48.258;12.690;2023-10-09T09:40:04;29.57;;;6.40;;
19341;SDS011;9807;48.258;12.690;2023-10-09T09:42:57;26.67;;;5.40;;
19341;SDS011;9807;48.258;12.690;2023-10-09T09:45:37;23.30;;;4.70;;
19341;SDS011;9807;48.258;12.690;2023-10-09T09:48:03;32.00;;;5.53;;
19341;SDS011;9807;48.258;12.690;2023-10-09T09:50:37;31.53;;;4.80;;
19341;SDS011;9807;48.258;12.690;2023-10-09T09:53:09;29.93;;;4.87;;
19341;SDS011;9807;48.258;12.690;2023-10-09T09:55:46;26.57;;;4.97;;
19341;SDS011;9807;48.258;12.690;2023-10-09T09:58:17;27.13;;;4.57;;
19341;SDS011;9807;48.258;12.690;2023-10-09T10:00:49;21.67;;;4.20;;
19341;SDS011;9807;48.258;12.690;2023-10-09T10:03:19;23.53;;;4.13;;
19341;SDS011;9807;48.258;12.690;2023-10-09T10:05:51;27.53;;;4.57;;
19341;SDS011;9807;48.258;12.690;2023-10-09T10:08:21;29.80;;;4.77;;
19341;SDS011;9807;48.258;12.690;2023-10-09T10:10:56;21.63;;;4.37;;
19341;SDS011;9807;48.258;12.690;2023-10-09T10:16:06;24.70;;;5.00;;
19341;SDS011;9807;48.258;12.690;2023-10-09T10:21:41;31.57;;;4.50;;
19341;SDS011;9807;48.258;12.690;2023-10-09T10:29:43;28.17;;;4.77;;
19341;SDS011;9807;48.258;12.690;2023-10-09T10:32:15;24.23;;;4.63;;
19341;SDS011;9807;48.258;12.690;2023-10-09T10:40:09;33.17;;;4.90;;
19341;SDS011;9807;48.258;12.690;2023-10-09T10:42:58;31.27;;;5.00;;
19341;SDS011;9807;48.258;12.690;2023-10-09T10:45:37;24.00;;;4.37;;
19341;SDS011;9807;48.258;12.690;2023-10-09T10:48:08;26.17;;;4.50;;
19341;SDS011;9807;48.258;12.690;2023-10-09T10:50:48;32.50;;;5.03;;
19341;SDS011;9807;48.258;12.690;2023-10-09T10:53:22;31.30;;;5.40;;
19341;SDS011;9807;48.258;12.690;2023-10-09T10:55:58;29.37;;;5.60;;
19341;SDS011;9807;48.258;12.690;2023-10-09T10:58:52;22.67;;;4.43;;
19341;SDS011;9807;48.258;12.690;2023-10-09T11:01:30;26.77;;;4.70;;
19341;SDS011;9807;48.258;12.690;2023-10-09T11:04:22;30.23;;;5.47;;
19341;SDS011;9807;48.258;12.690;2023-10-09T11:06:58;27.00;;;4.80;;
19341;SDS011;9807;48.258;12.690;2023-10-09T11:10:02;24.23;;;4.50;;
19341;SDS011;9807;48.258;12.690;2023-10-09T11:12:29;21.43;;;4.63;;
19341;SDS011;9807;48.258;12.690;2023-10-09T11:15:47;28.07;;;4.60;;
19341;SDS011;9807;48.258;12.690;2023-10-09T11:18:09;35.00;;;4.80;;
19341;SDS011;9807;48.258;12.690;2023-10-09T11:20:57;28.00;;;5.03;;
19341;SDS011;9807;48.258;12.690;2023-10-09T11:23:30;24.53;;;5.17;;
19341;SDS011;9807;48.258;12.690;2023-10-09T11:25:59;28.20;;;4.37;;
19341;SDS011;9807;48.258;12.690;2023-10-09T11:28:45;35.77;;;5.07;;
19341;SDS011;9807;48.258;12.690;2023-10-09T11:31:14;27.27;;;4.40;;
19341;SDS011;9807;48.258;12.690;2023-10-09T11:36:17;29.90;;;4.60;;
19341;SDS011;9807;48.258;12.690;2023-10-09T11:38:59;37.80;;;6.47;;
19341;SDS011;9807;48.258;12.690;2023-10-09T11:41:45;34.90;;;4.77;;
19341;SDS011;9807;48.258;12.690;2023-10-09T11:44:14;25.83;;;4.23;;
19341;SDS011;9807;48.258;12.690;2023-10-09T11:47:02;29.70;;;4.73;;
19341;SDS011;9807;48.258;12.690;2023-10-09T11:49:54;27.40;;;5.20;;
19341;SDS011;9807;48.258;12.690;2023-10-09T11:52:27;25.77;;;4.67;;
19341;SDS011;9807;48.258;12.690;2023-10-09T11:54:56;31.37;;;4.83;;
19341;SDS011;9807;48.258;12.690;2023-10-09T11:57:24;35.63;;;4.50;;
19341;SDS011;9807;48.258;12.690;2023-10-09T11:59:58;27.13;;;4.03;;
19341;SDS011;9807;48.258;12.690;2023-10-09T12:02:25;30.37;;;4.87;;
19341;SDS011;9807;48.258;12.690;2023-10-09T12:04:51;29.77;;;4.97;;
19341;SDS011;9807;48.258;12.690;2023-10-09T12:07:20;28.23;;;5.17;;
19341;SDS011;9807;48.258;12.690;2023-10-09T12:09:47;37.93;;;5.43;;
19341;SDS011;9807;48.258;12.690;2023-10-09T12:12:13;37.30;;;5.13;;
19341;SDS011;9807;48.258;12.690;2023-10-09T12:14:39;24.17;;;4.97;;
19341;SDS011;9807;48.258;12.690;2023-10-09T12:17:06;29.80;;;4.50;;
19341;SDS011;9807;48.258;12.690;2023-10-09T12:19:33;32.37;;;5.10;;
19341;SDS011;9807;48.258;12.690;2023-10-09T12:22:00;30.63;;;4.73;;
19341;SDS011;9807;48.258;12.690;2023-10-09T12:24:26;27.47;;;5.27;;
19341;SDS011;9807;48.258;12.690;2023-10-09T12:26:55;31.27;;;5.33;;
19341;SDS011;9807;48.258;12.690;2023-10-09T12:29:21;39.27;;;5.20;;
19341;SDS011;9807;48.258;12.690;2023-10-09T12:31:48;31.43;;;5.00;;
19341;SDS011;9807;48.258;12.690;2023-10-09T12:34:23;28.70;;;5.57;;
19341;SDS011;9807;48.258;12.690;2023-10-09T12:36:52;29.67;;;5.20;;
19341;SDS011;9807;48.258;12.690;2023-10-09T12:39:19;40.00;;;4.57;;
19341;SDS011;9807;48.258;12.690;2023-10-09T12:41:46;39.90;;;5.03;;
19341;SDS011;9807;48.258;12.690;2023-10-09T12:44:14;24.47;;;4.67;;
19341;SDS011;9807;48.258;12.690;2023-10-09T12:46:43;29.43;;;5.30;;
19341;SDS011;9807;48.258;12.690;2023-10-09T12:49:17;26.80;;;4.93;;
19341;SDS011;9807;48.258;12.690;2023-10-09T12:51:47;36.33;;;5.23;;
19341;SDS011;9807;48.258;12.690;2023-10-09T12:54:16;32.43;;;5.20;;
19341;SDS011;9807;48.258;12.690;2023-10-09T12:56:45;23.03;;;4.70;;
19341;SDS011;9807;48.258;12.690;2023-10-09T12:59:14;31.33;;;5.17;;
19341;SDS011;9807;48.258;12.690;2023-10-09T13:01:43;27.30;;;4.87;;
19341;SDS011;9807;48.258;12.690;2023-10-09T13:04:12;22.37;;;4.73;;
19341;SDS011;9807;48.258;12.690;2023-10-09T13:06:42;39.17;;;5.33;;
19341;SDS011;9807;48.258;12.690;2023-10-09T13:09:12;26.13;;;4.33;;
19341;SDS011;9807;48.258;12.690;2023-10-09T13:11:40;30.70;;;5.90;;
19341;SDS011;9807;48.258;12.690;2023-10-09T13:14:06;32.13;;;4.90;;
19341;SDS011;9807;48.258;12.690;2023-10-09T13:16:46;38.23;;;5.03;;
19341;SDS011;9807;48.258;12.690;2023-10-09T13:19:15;26.33;;;5.33;;
19341;SDS011;9807;48.258;12.690;2023-10-09T13:21:42;48.03;;;5.40;;
19341;SDS011;9807;48.258;12.690;2023-10-09T13:24:09;22.13;;;5.13;;
19341;SDS011;9807;48.258;12.690;2023-10-09T13:26:41;27.33;;;4.83;;
19341;SDS011;9807;48.258;12.690;2023-10-09T13:29:10;31.30;;;5.10;;
19341;SDS011;9807;48.258;12.690;2023-10-09T13:31:36;26.43;;;4.70;;
19341;SDS011;9807;48.258;12.690;2023-10-09T13:34:06;32.47;;;5.17;;
19341;SDS011;9807;48.258;12.690;2023-10-09T13:36:35;37.13;;;4.87;;
19341;SDS011;9807;48.258;12.690;2023-10-09T13:39:06;29.97;;;5.57;;
19341;SDS011;9807;48.258;12.690;2023-10-09T13:41:55;28.30;;;5.20;;
19341;SDS011;9807;48.258;12.690;2023-10-09T13:44:25;31.67;;;5.30;;
19341;SDS011;9807;48.258;12.690;2023-10-09T13:46:58;31.77;;;5.13;;
19341;SDS011;9807;48.258;12.690;2023-10-09T13:49:30;37.73;;;5.10;;
19341;SDS011;9807;48.258;12.690;2023-10-09T13:52:00;26.80;;;5.07;;
19341;SDS011;9807;48.258;12.690;2023-10-09T13:54:27;30.70;;;5.67;;
19341;SDS011;9807;48.258;12.690;2023-10-09T13:57:04;35.90;;;5.67;;
19341;SDS011;9807;48.258;12.690;2023-10-09T13:59:32;39.67;;;5.10;;
19341;SDS011;9807;48.258;12.690;2023-10-09T14:02:07;28.33;;;4.93;;
19341;SDS011;9807;48.258;12.690;2023-10-09T14:04:42;28.13;;;5.67;;
19341;SDS011;9807;48.258;12.690;2023-10-09T14:07:09;28.73;;;5.03;;
19341;SDS011;9807;48.258;12.690;2023-10-09T14:09:35;33.33;;;4.60;;
19341;SDS011;9807;48.258;12.690;2023-10-09T14:12:05;31.37;;;5.60;;
19341;SDS011;9807;48.258;12.690;2023-10-09T14:14:38;27.80;;;5.40;;
19341;SDS011;9807;48.258;12.690;2023-10-09T14:19:46;28.50;;;5.33;;
19341;SDS011;9807;48.258;12.690;2023-10-09T14:22:14;35.47;;;5.20;;
19341;SDS011;9807;48.258;12.690;2023-10-09T14:24:46;36.77;;;5.70;;
19341;SDS011;9807;48.258;12.690;2023-10-09T14:27:20;25.43;;;5.33;;
19341;SDS011;9807;48.258;12.690;2023-10-09T14:29:56;30.10;;;4.83;;
19341;SDS011;9807;48.258;12.690;2023-10-09T14:32:24;31.77;;;5.27;;
19341;SDS011;9807;48.258;12.690;2023-10-09T14:35:09;36.80;;;5.63;;
19341;SDS011;9807;48.258;12.690;2023-10-09T14:37:38;37.47;;;4.90;;
19341;SDS011;9807;48.258;12.690;2023-10-09T14:40:05;27.43;;;5.10;;
19341;SDS011;9807;48.258;12.690;2023-10-09T14:42:37;39.70;;;5.43;;
19341;SDS011;9807;48.258;12.690;2023-10-09T14:45:09;35.20;;;5.53;;
19341;SDS011;9807;48.258;12.690;2023-10-09T14:47:42;32.23;;;5.40;;
19341;SDS011;9807;48.258;12.690;2023-10-09T14:50:08;22.13;;;4.80;;
19341;SDS011;9807;48.258;12.690;2023-10-09T14:52:35;29.63;;;5.40;;
19341;SDS011;9807;48.258;12.690;2023-10-09T14:55:04;32.63;;;5.70;;
19341;SDS011;9807;48.258;12.690;2023-10-09T14:57:31;27.43;;;5.10;;
19341;SDS011;9807;48.258;12.690;2023-10-09T14:59:59;34.73;;;5.50;;
19341;SDS011;9807;48.258;12.690;2023-10-09T15:02:25;27.07;;;5.07;;
19341;SDS011;9807;48.258;12.690;2023-10-09T15:04:50;27.13;;;5.43;;
19341;SDS011;9807;48.258;12.690;2023-10-09T15:07:18;23.83;;;4.90;;
19341;SDS011;9807;48.258;12.690;2023-10-09T15:09:46;23.20;;;5.27;;
19341;SDS011;9807;48.258;12.690;2023-10-09T15:12:12;32.47;;;4.83;;
19341;SDS011;9807;48.258;12.690;2023-10-09T15:14:37;23.10;;;4.93;;
19341;SDS011;9807;48.258;12.690;2023-10-09T15:17:04;27.83;;;5.40;;
19341;SDS011;9807;48.258;12.690;2023-10-09T15:19:32;30.40;;;5.30;;
19341;SDS011;9807;48.258;12.690;2023-10-09T15:21:58;31.48;;;5.93;;
19341;SDS011;9807;48.258;12.690;2023-10-09T15:24:24;29.63;;;5.30;;
19341;SDS011;9807;48.258;12.690;2023-10-09T15:26:52;24.37;;;4.87;;
19341;SDS011;9807;48.258;12.690;2023-10-09T15:29:22;23.63;;;5.30;;
19341;SDS011;9807;48.258;12.690;2023-10-09T15:31:59;26.27;;;4.93;;
19341;SDS011;9807;48.258;12.690;2023-10-09T15:34:32;19.23;;;4.37;;
19341;SDS011;9807;48.258;12.690;2023-10-09T15:37:01;29.03;;;5.20;;
19341;SDS011;9807;48.258;12.690;2023-10-09T15:39:32;26.70;;;5.07;;
19341;SDS011;9807;48.258;12.690;2023-10-09T15:42:01;20.83;;;4.93;;
19341;SDS011;9807;48.258;12.690;2023-10-09T15:44:29;28.23;;;5.43;;
19341;SDS011;9807;48.258;12.690;2023-10-09T15:46:58;24.63;;;4.73;;
19341;SDS011;9807;48.258;12.690;2023-10-09T15:49:27;28.57;;;5.63;;
19341;SDS011;9807;48.258;12.690;2023-10-09T15:51:55;29.47;;;4.93;;
19341;SDS011;9807;48.258;12.690;2023-10-09T15:54:23;27.87;;;5.53;;